Terminal Aerodrome Forecast
Issued by NWS

Home | Current Version | Previous Version | Text Only | Print | Product List | Glossary On
Versions: 1 2 3 4 5 6 7 8 9 10 11 12 13 14
200
FTUS46 KSGX 101513 AAB
TAFONT
TAF AMD
KONT 101513Z 1015/1118 VRB03KT 5SM HZ BKN005
      TEMPO 1015/1016 1 1/2SM BR OVC004
     FM101630 VRB03KT 5SM HZ BKN007
     FM101800 VRB06KT P6SM SCT010 BKN200
      TEMPO 1018/1020 5SM HZ
     FM102100 26009KT P6SM SCT015 SCT030 BKN200
     FM110400 25006KT 6SM HZ SCT015 BKN025=

USA.gov is the U.S. government's official web portal to all federal, state and local government web resources and services.